Terminal Aerodrome Forecast
Issued by NWS

Home | Current Version | Previous Version | Text Only | Print | Product List | Glossary On
Versions: 1 2 3 4 5 6 7 8 9 10 11 12 13 14
169
FTUS41 KLWX 201724
TAFMTN
TAF
KMTN 201724Z 2018/2118 33008G16KT P6SM SCT200
     FM202200 VRB04KT P6SM BKN200
     FM211500 13008KT P6SM SCT050 BKN200=

USA.gov is the U.S. government's official web portal to all federal, state and local government web resources and services.